aviador You're here:

KPRO Decoded Metar

PERRY MUNI in IA, USA
Report Time2017-08-20 13:35:00
UTC Time2017-08-20 13:41:07
Flight Rules vfr VFR
Wind240° at 05 kt
W.Decomp.*RWY 22: 4.8 kt HW 1.5 kt RCW
RWY 32: 0.7 kt HW 5 kt LCW
W.Rank240° ranks 29
Current wind is below 240° avg. (8.1)
Visibility9999 m
Phenomena:N/A
Clouds:N/A
Expected CloudBase > 400 ft AGL from Temp-Dew spread
CeilingNone
Temp21°C (ISA +8)
Dew Point20°C (94% RH)
QNH1015 hPa
Density Alt2,192 ft
Elevation1,010 ft
Report Wrong Elevation
Raw Report
METAR KPRO 201335Z AUTO 24005KT 10SM CLR 21/20 A2996 RMK AO2 T02050200=

Extra information for KPRO:More info

Metar Taf Metar & Taf Last 4 Metars F.Rules Stats Wind Profile Meteogram Temp Stats Airport Information Weather charts Add Link Nearby VenuesMetar ALERT Operation Metar Decoded Social comments

AIRNAV info for KPRO